sensor_id;sensor_type;location;lat;lon;timestamp;pressure;altitude;pressure_sealevel;temperature;humidity
42705;BME280;28342;42.594;23.414;2023-03-14T04:44:49;94525.78;;;0.97;67.54
42705;BME280;28342;42.594;23.414;2023-03-14T05:51:25;94490.81;;;0.98;71.72
42705;BME280;28342;42.594;23.414;2023-03-14T05:57:54;94449.38;;;0.79;71.67
42705;BME280;28342;42.594;23.414;2023-03-14T07:04:58;94471.94;;;2.75;66.04
42705;BME280;28342;42.594;23.414;2023-03-14T07:27:29;94396.00;;;3.56;61.45
42705;BME280;28342;42.594;23.414;2023-03-14T07:32:54;94434.06;;;4.28;67.43
42705;BME280;28342;42.594;23.414;2023-03-14T07:35:19;94426.13;;;4.48;64.88
42705;BME280;28342;42.594;23.414;2023-03-14T07:37:46;94401.81;;;4.72;62.84
42705;BME280;28342;42.594;23.414;2023-03-14T07:40:14;94436.28;;;5.04;59.43
42705;BME280;28342;42.594;23.414;2023-03-14T07:42:49;94409.53;;;4.97;60.39
42705;BME280;28342;42.594;23.414;2023-03-14T07:45:15;94421.06;;;5.06;60.20
42705;BME280;28342;42.594;23.414;2023-03-14T07:47:48;94435.00;;;5.36;60.33
42705;BME280;28342;42.594;23.414;2023-03-14T07:50:16;94409.19;;;5.43;58.76
42705;BME280;28342;42.594;23.414;2023-03-14T07:52:47;94422.34;;;5.72;57.41
42705;BME280;28342;42.594;23.414;2023-03-14T07:55:27;94427.94;;;6.18;56.79
42705;BME280;28342;42.594;23.414;2023-03-14T07:58:16;94419.97;;;6.66;56.03
42705;BME280;28342;42.594;23.414;2023-03-14T08:00:43;94418.56;;;6.93;53.00
42705;BME280;28342;42.594;23.414;2023-03-14T08:03:09;94425.06;;;7.52;52.24
42705;BME280;28342;42.594;23.414;2023-03-14T08:05:36;94426.41;;;8.09;50.58
42705;BME280;28342;42.594;23.414;2023-03-14T08:08:03;94402.84;;;8.13;50.26
42705;BME280;28342;42.594;23.414;2023-03-14T08:10:29;94424.75;;;8.54;49.54
42705;BME280;28342;42.594;23.414;2023-03-14T08:13:14;94423.34;;;8.84;48.69
42705;BME280;28342;42.594;23.414;2023-03-14T08:15:40;94415.72;;;8.83;48.02
42705;BME280;28342;42.594;23.414;2023-03-14T08:18:25;94409.53;;;9.23;46.39
42705;BME280;28342;42.594;23.414;2023-03-14T08:21:14;94426.31;;;9.95;48.76
42705;BME280;28342;42.594;23.414;2023-03-14T08:23:55;94426.50;;;10.29;45.61
42705;BME280;28342;42.594;23.414;2023-03-14T08:26:26;94412.13;;;10.87;43.89
42705;BME280;28342;42.594;23.414;2023-03-14T08:29:27;94424.63;;;11.30;43.76
42705;BME280;28342;42.594;23.414;2023-03-14T08:32:02;94425.25;;;11.44;42.05
42705;BME280;28342;42.594;23.414;2023-03-14T08:34:29;94409.00;;;11.02;42.25
42705;BME280;28342;42.594;23.414;2023-03-14T08:36:55;94427.75;;;10.97;41.55
42705;BME280;28342;42.594;23.414;2023-03-14T08:39:21;94419.50;;;11.25;41.66
42705;BME280;28342;42.594;23.414;2023-03-14T08:41:49;94418.84;;;11.80;40.68
42705;BME280;28342;42.594;23.414;2023-03-14T08:44:15;94409.47;;;11.82;40.60
42705;BME280;28342;42.594;23.414;2023-03-14T08:46:40;94405.59;;;12.18;39.64
42705;BME280;28342;42.594;23.414;2023-03-14T08:49:06;94406.72;;;12.08;39.53
42705;BME280;28342;42.594;23.414;2023-03-14T08:51:31;94398.22;;;12.23;39.08
42705;BME280;28342;42.594;23.414;2023-03-14T08:53:57;94392.81;;;12.11;39.92
42705;BME280;28342;42.594;23.414;2023-03-14T08:56:23;94387.69;;;12.65;37.08
42705;BME280;28342;42.594;23.414;2023-03-14T08:58:48;94385.63;;;12.92;37.88
42705;BME280;28342;42.594;23.414;2023-03-14T09:01:13;94386.16;;;13.06;37.55
42705;BME280;28342;42.594;23.414;2023-03-14T09:03:39;94382.91;;;13.42;37.74
42705;BME280;28342;42.594;23.414;2023-03-14T09:06:07;94367.97;;;13.08;36.01
42705;BME280;28342;42.594;23.414;2023-03-14T09:08:33;94358.25;;;13.33;35.75
42705;BME280;28342;42.594;23.414;2023-03-14T09:10:59;94371.19;;;13.55;35.58
42705;BME280;28342;42.594;23.414;2023-03-14T09:13:24;94379.03;;;13.39;36.07
42705;BME280;28342;42.594;23.414;2023-03-14T09:15:52;94363.84;;;13.19;36.09
42705;BME280;28342;42.594;23.414;2023-03-14T09:18:17;94365.09;;;13.55;37.41
42705;BME280;28342;42.594;23.414;2023-03-14T09:20:43;94350.25;;;13.66;36.48
42705;BME280;28342;42.594;23.414;2023-03-14T09:23:08;94348.72;;;13.89;35.70
42705;BME280;28342;42.594;23.414;2023-03-14T09:25:33;94343.41;;;14.01;35.35
42705;BME280;28342;42.594;23.414;2023-03-14T09:27:59;94335.59;;;13.72;34.91
42705;BME280;28342;42.594;23.414;2023-03-14T09:30:24;94327.19;;;14.31;36.71
42705;BME280;28342;42.594;23.414;2023-03-14T09:32:50;94325.19;;;14.52;34.05
42705;BME280;28342;42.594;23.414;2023-03-14T09:35:15;94304.28;;;14.18;34.20
42705;BME280;28342;42.594;23.414;2023-03-14T09:37:41;94318.28;;;14.02;36.83
42705;BME280;28342;42.594;23.414;2023-03-14T09:40:09;94298.06;;;14.38;33.94
42705;BME280;28342;42.594;23.414;2023-03-14T09:42:37;94300.06;;;14.41;35.46
42705;BME280;28342;42.594;23.414;2023-03-14T09:45:07;94297.16;;;14.71;34.91
42705;BME280;28342;42.594;23.414;2023-03-14T09:47:35;94303.75;;;15.01;35.00
42705;BME280;28342;42.594;23.414;2023-03-14T09:50:01;94301.75;;;15.26;34.77
42705;BME280;28342;42.594;23.414;2023-03-14T09:52:31;94286.41;;;15.23;33.74
42705;BME280;28342;42.594;23.414;2023-03-14T09:54:59;94262.75;;;15.53;33.68
42705;BME280;28342;42.594;23.414;2023-03-14T09:57:27;94262.50;;;16.05;33.47
42705;BME280;28342;42.594;23.414;2023-03-14T10:00:00;94265.28;;;15.93;32.77
42705;BME280;28342;42.594;23.414;2023-03-14T10:02:35;94260.72;;;15.62;34.07
42705;BME280;28342;42.594;23.414;2023-03-14T10:05:00;94257.44;;;15.84;36.75
42705;BME280;28342;42.594;23.414;2023-03-14T10:07:31;94263.47;;;16.13;34.32
42705;BME280;28342;42.594;23.414;2023-03-14T10:09:57;94246.00;;;15.56;34.75
42705;BME280;28342;42.594;23.414;2023-03-14T10:12:33;94250.94;;;16.17;35.86
42705;BME280;28342;42.594;23.414;2023-03-14T10:15:03;94247.56;;;16.20;34.39
42705;BME280;28342;42.594;23.414;2023-03-14T10:17:39;94255.78;;;16.47;34.58
42705;BME280;28342;42.594;23.414;2023-03-14T10:20:05;94246.44;;;16.21;35.08
42705;BME280;28342;42.594;23.414;2023-03-14T10:22:31;94234.91;;;16.36;33.85
42705;BME280;28342;42.594;23.414;2023-03-14T10:25:02;94229.56;;;16.01;33.53
42705;BME280;28342;42.594;23.414;2023-03-14T10:27:32;94225.28;;;16.16;34.18
42705;BME280;28342;42.594;23.414;2023-03-14T10:30:00;94212.97;;;16.47;34.97
42705;BME280;28342;42.594;23.414;2023-03-14T10:32:33;94218.97;;;16.59;34.66
42705;BME280;28342;42.594;23.414;2023-03-14T10:35:26;94196.31;;;16.37;34.28
42705;BME280;28342;42.594;23.414;2023-03-14T10:38:02;94197.84;;;16.19;32.69
42705;BME280;28342;42.594;23.414;2023-03-14T10:40:31;94194.16;;;16.62;34.04
42705;BME280;28342;42.594;23.414;2023-03-14T10:43:01;94179.44;;;16.91;nan
42705;BME280;28342;42.594;23.414;2023-03-14T10:47:54;94177.06;;;16.86;33.23
42705;BME280;28342;42.594;23.414;2023-03-14T10:50:29;94164.94;;;16.73;32.70
42705;BME280;28342;42.594;23.414;2023-03-14T10:52:56;94174.94;;;16.76;33.70
42705;BME280;28342;42.594;23.414;2023-03-14T10:55:23;94166.13;;;16.56;33.70
42705;BME280;28342;42.594;23.414;2023-03-14T10:57:50;94146.38;;;16.84;33.89
42705;BME280;28342;42.594;23.414;2023-03-14T11:00:20;94148.72;;;16.85;33.13
42705;BME280;28342;42.594;23.414;2023-03-14T11:03:09;94141.53;;;17.35;31.58
42705;BME280;28342;42.594;23.414;2023-03-14T11:08:11;94083.88;;;16.37;33.33
42705;BME280;28342;42.594;23.414;2023-03-14T11:10:43;94107.00;;;17.07;32.17
42705;BME280;28342;42.594;23.414;2023-03-14T11:13:26;94109.78;;;17.14;31.69
42705;BME280;28342;42.594;23.414;2023-03-14T11:17:15;94101.63;;;16.65;32.69
42705;BME280;28342;42.594;23.414;2023-03-14T11:21:59;94099.47;;;16.70;32.23
42705;BME280;28342;42.594;23.414;2023-03-14T11:29:54;94061.47;;;17.60;30.68
42705;BME280;28342;42.594;23.414;2023-03-14T11:32:43;94058.94;;;17.97;32.19
42705;BME280;28342;42.594;23.414;2023-03-14T11:35:30;94048.38;;;18.45;31.03
42705;BME280;28342;42.594;23.414;2023-03-14T11:40:33;94037.34;;;18.20;32.06
42705;BME280;28342;42.594;23.414;2023-03-14T11:45:37;94035.44;;;18.20;30.39
42705;BME280;28342;42.594;23.414;2023-03-14T11:48:09;94026.69;;;18.24;30.40
42705;BME280;28342;42.594;23.414;2023-03-14T11:50:38;94020.75;;;18.07;29.70
42705;BME280;28342;42.594;23.414;2023-03-14T11:53:09;94015.66;;;18.36;30.90
42705;BME280;28342;42.594;23.414;2023-03-14T11:55:38;93996.66;;;18.51;28.88
42705;BME280;28342;42.594;23.414;2023-03-14T12:00:49;94001.22;;;18.47;29.81
42705;BME280;28342;42.594;23.414;2023-03-14T12:03:32;93990.06;;;18.42;30.06
42705;BME280;28342;42.594;23.414;2023-03-14T12:08:57;93982.41;;;18.44;29.68
42705;BME280;28342;42.594;23.414;2023-03-14T12:11:36;93970.22;;;18.16;28.03
42705;BME280;28342;42.594;23.414;2023-03-14T12:14:26;93962.56;;;18.18;28.56
42705;BME280;28342;42.594;23.414;2023-03-14T12:16:56;93962.72;;;17.96;30.93
42705;BME280;28342;42.594;23.414;2023-03-14T12:21:58;93967.94;;;18.56;28.73
42705;BME280;28342;42.594;23.414;2023-03-14T12:24:27;93938.69;;;18.47;28.67
42705;BME280;28342;42.594;23.414;2023-03-14T12:26:59;93943.00;;;18.55;29.34
42705;BME280;28342;42.594;23.414;2023-03-14T12:29:25;93950.09;;;18.37;29.12
42705;BME280;28342;42.594;23.414;2023-03-14T12:32:06;93954.31;;;18.78;29.29
42705;BME280;28342;42.594;23.414;2023-03-14T12:34:34;93940.34;;;18.62;27.32
42705;BME280;28342;42.594;23.414;2023-03-14T12:39:40;93944.47;;;18.52;29.43
42705;BME280;28342;42.594;23.414;2023-03-14T12:44:53;93930.66;;;18.10;28.96
42705;BME280;28342;42.594;23.414;2023-03-14T12:50:12;93935.50;;;18.34;27.27
42705;BME280;28342;42.594;23.414;2023-03-14T13:00:59;93906.53;;;18.13;29.45
42705;BME280;28342;42.594;23.414;2023-03-14T13:03:35;93898.50;;;18.13;28.59
42705;BME280;28342;42.594;23.414;2023-03-14T13:06:02;93880.84;;;18.12;26.67
42705;BME280;28342;42.594;23.414;2023-03-14T13:08:38;93894.84;;;18.36;27.71
42705;BME280;28342;42.594;23.414;2023-03-14T13:11:16;93871.66;;;18.13;28.18
42705;BME280;28342;42.594;23.414;2023-03-14T13:13:57;93879.22;;;18.04;29.26
42705;BME280;28342;42.594;23.414;2023-03-14T13:16:24;93867.16;;;18.25;29.01
42705;BME280;28342;42.594;23.414;2023-03-14T13:19:02;93863.41;;;17.92;30.42
42705;BME280;28342;42.594;23.414;2023-03-14T13:21:34;93870.16;;;18.19;28.06
42705;BME280;28342;42.594;23.414;2023-03-14T13:24:06;93867.31;;;18.42;28.85
42705;BME280;28342;42.594;23.414;2023-03-14T13:26:35;93861.84;;;18.35;26.77
42705;BME280;28342;42.594;23.414;2023-03-14T13:31:36;93846.81;;;18.24;27.56
42705;BME280;28342;42.594;23.414;2023-03-14T13:34:06;93833.31;;;18.16;27.25
42705;BME280;28342;42.594;23.414;2023-03-14T13:36:36;93817.06;;;17.95;26.21
42705;BME280;28342;42.594;23.414;2023-03-14T13:39:02;93817.91;;;18.06;26.16
42705;BME280;28342;42.594;23.414;2023-03-14T13:41:29;93827.78;;;17.95;27.23
42705;BME280;28342;42.594;23.414;2023-03-14T13:44:13;93811.50;;;18.21;27.99
42705;BME280;28342;42.594;23.414;2023-03-14T13:46:39;93811.72;;;17.99;26.68
42705;BME280;28342;42.594;23.414;2023-03-14T13:49:06;93793.19;;;17.83;26.10
42705;BME280;28342;42.594;23.414;2023-03-14T13:51:44;93804.31;;;17.85;25.58
42705;BME280;28342;42.594;23.414;2023-03-14T13:54:17;93806.38;;;18.02;25.95
42705;BME280;28342;42.594;23.414;2023-03-14T13:56:43;93799.59;;;18.15;25.75
42705;BME280;28342;42.594;23.414;2023-03-14T13:59:24;93799.09;;;17.62;25.80
42705;BME280;28342;42.594;23.414;2023-03-14T14:01:51;93786.31;;;17.48;25.28
42705;BME280;28342;42.594;23.414;2023-03-14T14:04:20;93776.81;;;17.58;26.56
42705;BME280;28342;42.594;23.414;2023-03-14T14:06:53;93764.03;;;17.44;27.69
42705;BME280;28342;42.594;23.414;2023-03-14T14:09:22;93761.63;;;17.32;25.61
42705;BME280;28342;42.594;23.414;2023-03-14T14:17:31;93747.28;;;16.84;27.21
42705;BME280;28342;42.594;23.414;2023-03-14T14:19:59;93747.34;;;16.61;26.14
42705;BME280;28342;42.594;23.414;2023-03-14T14:22:26;93746.16;;;16.55;27.25
42705;BME280;28342;42.594;23.414;2023-03-14T14:24:52;93734.19;;;16.49;26.77
42705;BME280;28342;42.594;23.414;2023-03-14T14:27:19;93741.03;;;16.46;27.19
42705;BME280;28342;42.594;23.414;2023-03-14T14:30:29;93721.03;;;16.36;28.35
42705;BME280;28342;42.594;23.414;2023-03-14T14:33:11;93716.19;;;16.19;26.48
42705;BME280;28342;42.594;23.414;2023-03-14T14:35:38;93697.59;;;16.00;26.31
42705;BME280;28342;42.594;23.414;2023-03-14T14:38:12;93681.00;;;15.64;27.56
42705;BME280;28342;42.594;23.414;2023-03-14T14:40:42;93717.63;;;15.87;27.18
42705;BME280;28342;42.594;23.414;2023-03-14T14:43:14;93713.06;;;15.87;27.42
42705;BME280;28342;42.594;23.414;2023-03-14T14:45:42;93711.97;;;15.46;26.85
42705;BME280;28342;42.594;23.414;2023-03-14T14:48:11;93694.56;;;15.10;28.73
42705;BME280;28342;42.594;23.414;2023-03-14T14:50:39;93703.59;;;15.02;26.77
42705;BME280;28342;42.594;23.414;2023-03-14T14:53:30;93691.28;;;14.97;26.60
42705;BME280;28342;42.594;23.414;2023-03-14T14:55:58;93693.41;;;14.69;26.35
42705;BME280;28342;42.594;23.414;2023-03-14T14:58:28;93695.41;;;14.72;27.07
42705;BME280;28342;42.594;23.414;2023-03-14T15:01:04;93699.59;;;14.53;26.87
42705;BME280;28342;42.594;23.414;2023-03-14T15:03:32;93693.00;;;14.67;27.41
42705;BME280;28342;42.594;23.414;2023-03-14T15:05:58;93692.28;;;14.50;26.61
42705;BME280;28342;42.594;23.414;2023-03-14T15:08:25;93674.47;;;14.19;27.05
42705;BME280;28342;42.594;23.414;2023-03-14T15:10:51;93666.69;;;14.11;27.09
42705;BME280;28342;42.594;23.414;2023-03-14T15:13:17;93681.56;;;14.12;27.52
42705;BME280;28342;42.594;23.414;2023-03-14T15:15:42;93674.00;;;14.14;28.53
42705;BME280;28342;42.594;23.414;2023-03-14T15:18:14;93673.69;;;13.99;28.22
42705;BME280;28342;42.594;23.414;2023-03-14T15:20:44;93675.00;;;13.90;28.10
42705;BME280;28342;42.594;23.414;2023-03-14T15:23:20;93671.66;;;13.77;28.55
42705;BME280;28342;42.594;23.414;2023-03-14T15:25:47;93663.41;;;13.82;28.78
42705;BME280;28342;42.594;23.414;2023-03-14T15:30:40;93639.63;;;13.58;28.86
42705;BME280;28342;42.594;23.414;2023-03-14T15:33:08;93651.25;;;13.50;29.19
42705;BME280;28342;42.594;23.414;2023-03-14T15:35:38;93654.59;;;13.46;30.58
42705;BME280;28342;42.594;23.414;2023-03-14T15:38:04;93651.25;;;13.50;29.51
42705;BME280;28342;42.594;23.414;2023-03-14T15:40:30;93665.34;;;13.50;31.47
42705;BME280;28342;42.594;23.414;2023-03-14T15:42:56;93667.66;;;13.52;31.24
42705;BME280;28342;42.594;23.414;2023-03-14T15:45:21;93661.72;;;13.42;29.69
42705;BME280;28342;42.594;23.414;2023-03-14T15:47:51;93664.75;;;13.25;30.10
42705;BME280;28342;42.594;23.414;2023-03-14T15:50:18;93627.44;;;12.94;30.29
42705;BME280;28342;42.594;23.414;2023-03-14T15:52:45;93636.56;;;12.65;31.80
42705;BME280;28342;42.594;23.414;2023-03-14T15:55:11;93659.69;;;12.76;31.28
42705;BME280;28342;42.594;23.414;2023-03-14T15:57:37;93646.91;;;12.98;32.17
42705;BME280;28342;42.594;23.414;2023-03-14T16:00:03;93657.66;;;13.01;30.08
42705;BME280;28342;42.594;23.414;2023-03-14T16:02:33;93649.91;;;12.80;31.11
42705;BME280;28342;42.594;23.414;2023-03-14T16:04:59;93646.88;;;12.66;30.42
42705;BME280;28342;42.594;23.414;2023-03-14T16:07:25;93650.53;;;12.46;30.63
42705;BME280;28342;42.594;23.414;2023-03-14T16:09:56;93660.47;;;12.49;30.38
42705;BME280;28342;42.594;23.414;2023-03-14T16:12:42;93659.91;;;12.27;30.29
42705;BME280;28342;42.594;23.414;2023-03-14T16:15:09;93654.59;;;12.27;30.29
42705;BME280;28342;42.594;23.414;2023-03-14T16:17:35;93657.66;;;12.30;30.55
42705;BME280;28342;42.594;23.414;2023-03-14T16:20:04;93656.16;;;12.16;31.69
42705;BME280;28342;42.594;23.414;2023-03-14T16:22:30;93655.31;;;12.00;32.03
42705;BME280;28342;42.594;23.414;2023-03-14T16:25:00;93658.22;;;11.83;32.19
42705;BME280;28342;42.594;23.414;2023-03-14T16:27:26;93659.63;;;11.92;31.28
42705;BME280;28342;42.594;23.414;2023-03-14T16:30:11;93646.25;;;11.77;31.43
42705;BME280;28342;42.594;23.414;2023-03-14T16:32:38;93657.78;;;11.81;31.69
42705;BME280;28342;42.594;23.414;2023-03-14T16:35:26;93660.00;;;11.79;31.72
42705;BME280;28342;42.594;23.414;2023-03-14T16:37:52;93665.50;;;11.61;31.15
42705;BME280;28342;42.594;23.414;2023-03-14T16:40:43;93665.31;;;11.54;31.08
42705;BME280;28342;42.594;23.414;2023-03-14T16:43:08;93668.63;;;11.51;31.22
42705;BME280;28342;42.594;23.414;2023-03-14T16:45:36;93665.31;;;11.54;32.09
42705;BME280;28342;42.594;23.414;2023-03-14T16:48:03;93662.19;;;11.28;31.47
42705;BME280;28342;42.594;23.414;2023-03-14T16:50:31;93666.63;;;11.12;31.19
42705;BME280;28342;42.594;23.414;2023-03-14T16:52:58;93673.03;;;11.11;31.03
42705;BME280;28342;42.594;23.414;2023-03-14T16:55:24;93644.84;;;11.06;31.38
42705;BME280;28342;42.594;23.414;2023-03-14T16:57:58;93676.22;;;11.16;30.99
42705;BME280;28342;42.594;23.414;2023-03-14T17:00:30;93656.53;;;10.93;33.57
42705;BME280;28342;42.594;23.414;2023-03-14T17:03:01;93675.69;;;11.11;31.36
42705;BME280;28342;42.594;23.414;2023-03-14T17:05:26;93680.44;;;11.05;31.60
42705;BME280;28342;42.594;23.414;2023-03-14T17:07:52;93674.78;;;10.94;31.58
42705;BME280;28342;42.594;23.414;2023-03-14T17:10:18;93678.44;;;11.14;32.87
42705;BME280;28342;42.594;23.414;2023-03-14T17:12:46;93647.34;;;10.90;31.35
42705;BME280;28342;42.594;23.414;2023-03-14T17:15:15;93676.13;;;11.13;31.41
42705;BME280;28342;42.594;23.414;2023-03-14T17:17:42;93678.44;;;11.14;31.54
42705;BME280;28342;42.594;23.414;2023-03-14T17:20:11;93664.72;;;11.00;31.11
42705;BME280;28342;42.594;23.414;2023-03-14T17:22:37;93685.09;;;11.08;31.18
42705;BME280;28342;42.594;23.414;2023-03-14T17:25:04;93677.88;;;10.96;30.96
42705;BME280;28342;42.594;23.414;2023-03-14T17:27:30;93677.44;;;11.06;32.87
42705;BME280;28342;42.594;23.414;2023-03-14T17:29:56;93663.47;;;10.73;32.93
42705;BME280;28342;42.594;23.414;2023-03-14T17:32:33;93668.22;;;10.46;33.58
42705;BME280;28342;42.594;23.414;2023-03-14T17:34:59;93665.84;;;10.33;32.28
42705;BME280;28342;42.594;23.414;2023-03-14T17:37:30;93679.28;;;10.48;33.20
42705;BME280;28342;42.594;23.414;2023-03-14T17:39:56;93678.13;;;10.37;33.23
42705;BME280;28342;42.594;23.414;2023-03-14T17:42:27;93660.78;;;10.19;32.23
42705;BME280;28342;42.594;23.414;2023-03-14T17:45:05;93680.19;;;10.11;32.64
42705;BME280;28342;42.594;23.414;2023-03-14T17:47:58;93650.56;;;10.09;32.59
42705;BME280;28342;42.594;23.414;2023-03-14T17:50:52;93689.13;;;10.27;32.47
42705;BME280;28342;42.594;23.414;2023-03-14T17:53:45;93685.38;;;10.28;32.16
42705;BME280;28342;42.594;23.414;2023-03-14T17:56:13;93668.03;;;10.10;32.59
42705;BME280;28342;42.594;23.414;2023-03-14T17:58:42;93688.38;;;10.18;32.63
42705;BME280;28342;42.594;23.414;2023-03-14T18:01:15;93680.13;;;9.99;33.09
42705;BME280;28342;42.594;23.414;2023-03-14T18:03:41;93679.28;;;10.07;32.53
42705;BME280;28342;42.594;23.414;2023-03-14T18:06:10;93663.63;;;9.72;33.15
42705;BME280;28342;42.594;23.414;2023-03-14T18:08:37;93673.41;;;9.80;33.06
42705;BME280;28342;42.594;23.414;2023-03-14T18:11:05;93656.50;;;9.64;32.95
42705;BME280;28342;42.594;23.414;2023-03-14T18:13:31;93659.34;;;9.59;32.86
42705;BME280;28342;42.594;23.414;2023-03-14T18:15:56;93680.28;;;9.73;33.15
42705;BME280;28342;42.594;23.414;2023-03-14T18:18:22;93682.59;;;9.53;33.31
42705;BME280;28342;42.594;23.414;2023-03-14T18:20:52;93674.50;;;9.50;34.07
42705;BME280;28342;42.594;23.414;2023-03-14T18:23:19;93671.44;;;9.39;33.11
42705;BME280;28342;42.594;23.414;2023-03-14T18:25:47;93684.91;;;9.55;32.54
42705;BME280;28342;42.594;23.414;2023-03-14T18:28:17;93658.31;;;9.13;32.34
42705;BME280;28342;42.594;23.414;2023-03-14T18:30:43;93671.31;;;9.36;32.63
42705;BME280;28342;42.594;23.414;2023-03-14T18:33:19;93661.72;;;9.22;32.67
42705;BME280;28342;42.594;23.414;2023-03-14T18:35:47;93673.97;;;9.36;33.06
42705;BME280;28342;42.594;23.414;2023-03-14T18:38:19;93654.38;;;9.28;33.83
42705;BME280;28342;42.594;23.414;2023-03-14T18:40:49;93674.88;;;9.40;33.85
42705;BME280;28342;42.594;23.414;2023-03-14T18:43:14;93667.00;;;9.22;31.79
42705;BME280;28342;42.594;23.414;2023-03-14T18:45:41;93653.03;;;9.13;32.82
42705;BME280;28342;42.594;23.414;2023-03-14T18:48:28;93667.16;;;9.17;33.10
42705;BME280;28342;42.594;23.414;2023-03-14T18:50:59;93664.47;;;9.35;32.92
42705;BME280;28342;42.594;23.414;2023-03-14T18:53:44;93681.34;;;9.21;32.59
42705;BME280;28342;42.594;23.414;2023-03-14T18:56:32;93675.59;;;9.19;33.59
42705;BME280;28342;42.594;23.414;2023-03-14T18:59:43;93658.25;;;8.92;33.45
42705;BME280;28342;42.594;23.414;2023-03-14T19:02:32;93680.78;;;9.07;34.07
42705;BME280;28342;42.594;23.414;2023-03-14T19:04:58;93680.97;;;8.93;34.00
42705;BME280;28342;42.594;23.414;2023-03-14T19:07:25;93662.63;;;8.88;34.07
42705;BME280;28342;42.594;23.414;2023-03-14T19:09:53;93677.22;;;8.94;34.55
42705;BME280;28342;42.594;23.414;2023-03-14T19:12:19;93659.56;;;8.78;34.90
42705;BME280;28342;42.594;23.414;2023-03-14T19:14:47;93651.31;;;8.71;35.63
42705;BME280;28342;42.594;23.414;2023-03-14T19:17:15;93672.41;;;8.88;35.65
42705;BME280;28342;42.594;23.414;2023-03-14T19:19:42;93671.03;;;8.82;36.36
42705;BME280;28342;42.594;23.414;2023-03-14T19:22:32;93673.53;;;8.78;36.22
42705;BME280;28342;42.594;23.414;2023-03-14T19:24:58;93684.72;;;8.84;36.81
42705;BME280;28342;42.594;23.414;2023-03-14T19:27:25;93677.28;;;8.77;38.26
42705;BME280;28342;42.594;23.414;2023-03-14T19:29:50;93671.63;;;8.87;37.60
42705;BME280;28342;42.594;23.414;2023-03-14T19:32:17;93660.34;;;8.69;37.66
42705;BME280;28342;42.594;23.414;2023-03-14T19:34:43;93674.97;;;8.76;37.70
42705;BME280;28342;42.594;23.414;2023-03-14T19:37:09;93680.25;;;8.76;38.37
42705;BME280;28342;42.594;23.414;2023-03-14T19:39:35;93674.97;;;8.76;39.28
42705;BME280;28342;42.594;23.414;2023-03-14T19:42:00;93654.72;;;8.71;38.82
42705;BME280;28342;42.594;23.414;2023-03-14T19:44:26;93673.09;;;8.67;38.86
42705;BME280;28342;42.594;23.414;2023-03-14T19:46:52;93675.78;;;8.59;40.65
42705;BME280;28342;42.594;23.414;2023-03-14T19:49:18;93667.38;;;8.48;40.57
42705;BME280;28342;42.594;23.414;2023-03-14T19:51:43;93670.31;;;8.55;40.14
42705;BME280;28342;42.594;23.414;2023-03-14T19:54:09;93666.94;;;8.46;40.85
42705;BME280;28342;42.594;23.414;2023-03-14T19:56:35;93663.97;;;8.39;40.82
42705;BME280;28342;42.594;23.414;2023-03-14T19:59:02;93676.53;;;8.42;41.54
42705;BME280;28342;42.594;23.414;2023-03-14T20:01:28;93666.31;;;8.15;42.66
42705;BME280;28342;42.594;23.414;2023-03-14T20:03:55;93661.94;;;8.19;43.21
42705;BME280;28342;42.594;23.414;2023-03-14T20:06:22;93647.03;;;8.05;42.99
42705;BME280;28342;42.594;23.414;2023-03-14T20:08:48;93659.63;;;8.08;43.37
42705;BME280;28342;42.594;23.414;2023-03-14T20:11:14;93642.53;;;8.06;43.75
42705;BME280;28342;42.594;23.414;2023-03-14T20:13:40;93655.88;;;7.92;44.43
42705;BME280;28342;42.594;23.414;2023-03-14T20:16:08;93657.44;;;8.02;44.63
42705;BME280;28342;42.594;23.414;2023-03-14T20:18:37;93654.50;;;7.86;45.12
42705;BME280;28342;42.594;23.414;2023-03-14T20:21:05;93659.94;;;7.98;45.40
42705;BME280;28342;42.594;23.414;2023-03-14T20:23:33;93662.88;;;8.05;45.65
42705;BME280;28342;42.594;23.414;2023-03-14T20:26:03;93654.34;;;8.00;45.15
42705;BME280;28342;42.594;23.414;2023-03-14T20:28:35;93658.22;;;8.02;45.17
42705;BME280;28342;42.594;23.414;2023-03-14T20:31:05;93656.81;;;7.96;46.05
42705;BME280;28342;42.594;23.414;2023-03-14T20:33:31;93639.28;;;7.83;45.99
42705;BME280;28342;42.594;23.414;2023-03-14T20:35:59;93644.88;;;7.82;46.19
42705;BME280;28342;42.594;23.414;2023-03-14T20:38:50;93658.06;;;7.90;46.29
42705;BME280;28342;42.594;23.414;2023-03-14T20:41:22;93657.28;;;7.81;46.99
42705;BME280;28342;42.594;23.414;2023-03-14T20:43:48;93645.50;;;7.87;47.35
42705;BME280;28342;42.594;23.414;2023-03-14T20:46:13;93639.88;;;7.80;48.57
42705;BME280;28342;42.594;23.414;2023-03-14T20:48:43;93637.34;;;7.49;48.49
42705;BME280;28342;42.594;23.414;2023-03-14T20:51:19;93614.56;;;7.53;48.14
42705;BME280;28342;42.594;23.414;2023-03-14T20:54:11;93605.56;;;7.54;48.41
42705;BME280;28342;42.594;23.414;2023-03-14T20:56:49;93619.03;;;7.44;48.72
42705;BME280;28342;42.594;23.414;2023-03-14T20:59:15;93608.34;;;7.40;49.54
42705;BME280;28342;42.594;23.414;2023-03-14T21:01:43;93618.31;;;7.52;49.62
42705;BME280;28342;42.594;23.414;2023-03-14T21:04:19;93622.16;;;7.37;50.19
42705;BME280;28342;42.594;23.414;2023-03-14T21:06:47;93616.38;;;7.27;51.00
42705;BME280;28342;42.594;23.414;2023-03-14T21:09:13;93614.38;;;7.32;50.59
42705;BME280;28342;42.594;23.414;2023-03-14T21:11:39;93613.91;;;7.30;50.40
42705;BME280;28342;42.594;23.414;2023-03-14T21:14:13;93602.75;;;7.42;49.85
42705;BME280;28342;42.594;23.414;2023-03-14T21:16:40;93620.91;;;7.43;50.09
42705;BME280;28342;42.594;23.414;2023-03-14T21:19:06;93606.78;;;7.48;50.91
42705;BME280;28342;42.594;23.414;2023-03-14T21:21:47;93574.66;;;7.29;50.70
42705;BME280;28342;42.594;23.414;2023-03-14T21:24:35;93600.72;;;7.47;49.94